Whiteface, Texas
Current Conditions -  °F | °C
As of 5:53 AM on Sunday 25 Jan 2015 (Local Time) from KLBB Reporting Station
Few Clouds Few Clouds  
Wind Chill: 25°   Ceiling: Unl
Heat Index: 33°   Visibility: 10mi
Dew Point: 28°   Wind: 9mph
Humidity: 82%   Direction: 340°NNW
Pressure: 30.11"   Gusts: NA
Location:  33.6°N, 102.61°W
Report Text: KLBB 251153Z 34008KT 10SM FEW220 01/M02 A3011 RMK AO2 SLP192 T00061022 10028 20006 51009
Loading
Personal Weather Stations






























Interactive Weather Map New forecast layout! Learn more

10-Day Weather Forecast

Advertisements
Track Severe Weather on mobile